createdAt,value
2022-11-25T00:01:10.178Z,145.60
2022-11-25T00:03:40.570Z,143.13
2022-11-25T00:06:14.466Z,152.07
2022-11-25T00:08:43.678Z,160.25
2022-11-25T00:11:12.447Z,157.13
2022-11-25T00:13:41.393Z,143.90
2022-11-25T00:16:12.114Z,145.98
2022-11-25T00:18:45.186Z,128.85
2022-11-25T00:21:15.381Z,136.65
2022-11-25T00:23:43.863Z,145.85
2022-11-25T00:26:13.231Z,139.45
2022-11-25T00:28:43.208Z,138.18
2022-11-25T00:31:12.936Z,131.18
2022-11-25T00:33:43.120Z,123.47
2022-11-25T00:36:16.587Z,135.38
2022-11-25T00:38:45.598Z,137.52
2022-11-25T00:41:31.225Z,132.65
2022-11-25T00:44:16.962Z,142.38
2022-11-25T00:46:45.117Z,126.47
2022-11-25T00:49:15.030Z,139.55
2022-11-25T00:51:43.101Z,128.93
2022-11-25T00:54:11.625Z,139.93
2022-11-25T00:56:39.864Z,133.65
2022-11-25T00:59:08.646Z,133.82
2022-11-25T01:01:36.902Z,139.88
2022-11-25T01:04:06.131Z,133.63
2022-11-25T01:06:36.129Z,136.15
2022-11-25T01:09:05.531Z,139.25
2022-11-25T01:11:33.954Z,138.52
2022-11-25T01:14:02.594Z,134.25
2022-11-25T01:16:31.642Z,137.90
2022-11-25T01:19:03.240Z,132.52
2022-11-25T01:21:33.051Z,146.55
2022-11-25T01:24:05.431Z,135.00
2022-11-25T01:26:34.022Z,135.70
2022-11-25T01:29:04.255Z,133.88
2022-11-25T01:31:34.670Z,136.77
2022-11-25T01:34:05.115Z,134.88
2022-11-25T01:36:33.617Z,145.48
2022-11-25T01:39:03.304Z,134.68
2022-11-25T01:41:32.828Z,141.27
2022-11-25T01:44:13.576Z,135.43
2022-11-25T01:46:52.550Z,132.37
2022-11-25T01:49:23.558Z,127.75
2022-11-25T01:51:54.594Z,124.55
2022-11-25T01:54:28.486Z,124.57
2022-11-25T01:57:00.706Z,116.78
2022-11-25T01:59:30.670Z,133.48
2022-11-25T02:01:59.707Z,119.65
2022-11-25T02:04:33.795Z,126.15
2022-11-25T02:07:06.028Z,119.95
2022-11-25T02:09:36.296Z,125.00
2022-11-25T02:12:04.726Z,129.00
2022-11-25T02:14:33.314Z,126.78
2022-11-25T02:17:02.502Z,137.52
2022-11-25T02:19:41.051Z,132.15
2022-11-25T02:22:13.010Z,131.50
2022-11-25T02:24:44.831Z,142.40
2022-11-25T02:27:14.595Z,132.77
2022-11-25T02:29:44.497Z,138.88
2022-11-25T02:32:12.549Z,141.60
2022-11-25T02:34:48.061Z,133.38
2022-11-25T02:37:17.282Z,140.00
2022-11-25T02:39:46.398Z,145.52
2022-11-25T02:42:17.441Z,133.25
2022-11-25T02:44:45.770Z,136.80
2022-11-25T02:47:13.950Z,134.07
2022-11-25T02:49:42.253Z,125.63
2022-11-25T02:52:10.779Z,132.50
2022-11-25T02:54:39.257Z,143.70
2022-11-25T02:57:07.440Z,131.32
2022-11-25T02:59:37.202Z,129.10
2022-11-25T03:02:05.638Z,123.60
2022-11-25T03:04:34.288Z,130.55
2022-11-25T03:07:03.391Z,133.73
2022-11-25T03:09:31.828Z,127.07
2022-11-25T03:12:17.262Z,126.63
2022-11-25T03:14:47.758Z,122.35
2022-11-25T03:17:16.221Z,122.25
2022-11-25T03:19:44.648Z,120.28
2022-11-25T03:22:12.684Z,118.85
2022-11-25T03:24:41.206Z,118.20
2022-11-25T03:27:09.318Z,118.10
2022-11-25T03:29:37.815Z,119.97
2022-11-25T03:32:09.702Z,117.55
2022-11-25T03:34:38.570Z,119.57
2022-11-25T03:37:06.915Z,121.35
2022-11-25T03:39:35.764Z,120.82
2022-11-25T03:42:03.965Z,117.35
2022-11-25T03:44:32.308Z,118.80
2022-11-25T03:47:00.324Z,120.90
2022-11-25T03:49:29.982Z,118.57
2022-11-25T03:51:58.095Z,114.43
2022-11-25T03:54:26.641Z,117.78
2022-11-25T03:56:54.864Z,111.80
2022-11-25T03:59:23.297Z,117.32
2022-11-25T04:01:51.573Z,123.68
2022-11-25T04:04:19.957Z,121.68
2022-11-25T04:06:49.400Z,114.30
2022-11-25T04:09:17.711Z,112.43
2022-11-25T04:12:03.350Z,122.82
2022-11-25T04:14:31.758Z,119.95
2022-11-25T04:16:59.961Z,115.68
2022-11-25T04:19:28.355Z,127.35
2022-11-25T04:22:01.214Z,118.05
2022-11-25T04:24:30.097Z,121.13
2022-11-25T04:26:58.090Z,125.57
2022-11-25T04:29:26.600Z,126.45
2022-11-25T04:31:54.622Z,121.25
2022-11-25T04:34:23.064Z,124.60
2022-11-25T04:36:51.216Z,126.00
2022-11-25T04:39:20.847Z,121.25
2022-11-25T04:41:48.846Z,125.72
2022-11-25T04:44:17.152Z,124.15
2022-11-25T04:46:45.202Z,125.70
2022-11-25T04:49:13.536Z,124.90
2022-11-25T04:51:41.571Z,123.30
2022-11-25T04:54:13.427Z,132.30
2022-11-25T04:56:46.694Z,121.43
2022-11-25T04:59:32.406Z,124.00
2022-11-25T05:02:00.481Z,118.07
2022-11-25T05:04:28.956Z,121.55
2022-11-25T05:06:57.263Z,116.57
2022-11-25T05:09:25.710Z,128.77
2022-11-25T05:11:55.331Z,109.50
2022-11-25T05:14:24.067Z,109.32
2022-11-25T05:16:52.315Z,119.45
2022-11-25T05:19:20.791Z,123.93
2022-11-25T05:21:49.185Z,128.07
2022-11-25T05:24:17.479Z,131.88
2022-11-25T05:26:45.599Z,130.15
2022-11-25T05:29:15.281Z,123.15
2022-11-25T05:31:43.354Z,123.10
2022-11-25T05:34:11.836Z,128.13
2022-11-25T05:36:40.114Z,122.95
2022-11-25T05:39:08.801Z,116.78
2022-11-25T05:41:36.850Z,114.80
2022-11-25T05:44:06.180Z,121.10
2022-11-25T05:46:35.957Z,125.03
2022-11-25T05:49:04.507Z,112.57
2022-11-25T05:51:32.964Z,119.53
2022-11-25T05:54:01.294Z,114.72
2022-11-25T05:56:29.530Z,107.75
2022-11-25T05:59:01.229Z,109.55
2022-11-25T06:01:29.346Z,112.28
2022-11-25T06:04:02.312Z,113.07
2022-11-25T06:06:30.406Z,109.75
2022-11-25T06:08:58.761Z,112.75
2022-11-25T06:11:26.815Z,103.97
2022-11-25T06:13:57.977Z,113.32
2022-11-25T06:16:26.501Z,106.72
2022-11-25T06:18:54.971Z,99.13
2022-11-25T06:21:24.455Z,97.13
2022-11-25T06:23:53.012Z,93.65
2022-11-25T06:26:23.030Z,91.95
2022-11-25T06:28:54.668Z,89.00
2022-11-25T06:31:25.769Z,102.05
2022-11-25T06:36:24.396Z,104.00
2022-11-25T06:38:54.270Z,105.90
2022-11-25T06:41:23.389Z,95.10
2022-11-25T06:43:51.864Z,98.32
2022-11-25T06:46:24.743Z,92.45
2022-11-25T06:48:54.202Z,94.05
2022-11-25T06:51:24.694Z,98.53
2022-11-25T06:53:54.577Z,102.25
2022-11-25T06:56:24.690Z,92.40
2022-11-25T06:58:53.386Z,96.00
2022-11-25T07:01:23.613Z,87.53
2022-11-25T07:03:54.435Z,95.53
2022-11-25T07:06:22.791Z,87.93
2022-11-25T07:08:51.589Z,88.68
2022-11-25T07:11:24.160Z,92.43
2022-11-25T07:13:53.655Z,91.63
2022-11-25T07:16:21.885Z,83.50
2022-11-25T07:18:51.727Z,90.50
2022-11-25T07:21:21.796Z,87.03
2022-11-25T07:23:51.260Z,87.45
2022-11-25T07:26:22.447Z,83.05
2022-11-25T07:31:24.792Z,87.43
2022-11-25T07:33:57.560Z,75.88
2022-11-25T07:36:26.474Z,85.65
2022-11-25T07:38:55.223Z,77.97
2022-11-25T07:41:25.979Z,75.47
2022-11-25T07:43:56.102Z,81.05
2022-11-25T07:46:27.447Z,91.28
2022-11-25T07:48:57.558Z,86.30
2022-11-25T07:51:27.393Z,86.35
2022-11-25T07:53:56.782Z,96.03
2022-11-25T07:56:26.600Z,86.80
2022-11-25T07:58:55.623Z,89.07
2022-11-25T08:01:23.915Z,93.55
2022-11-25T08:03:53.078Z,94.45
2022-11-25T08:06:22.771Z,97.47
2022-11-25T08:08:53.002Z,90.75
2022-11-25T08:11:22.898Z,95.88
2022-11-25T08:13:52.960Z,92.50
2022-11-25T08:16:23.067Z,100.57
2022-11-25T08:18:52.028Z,93.60
2022-11-25T08:21:20.588Z,90.30
2022-11-25T08:23:49.756Z,88.55
2022-11-25T08:26:19.524Z,91.30
2022-11-25T08:28:48.430Z,87.15
2022-11-25T08:31:19.701Z,90.25
2022-11-25T08:33:48.719Z,82.57
2022-11-25T08:36:17.562Z,78.15
2022-11-25T08:38:47.348Z,79.78
2022-11-25T08:41:17.742Z,87.93
2022-11-25T08:43:46.402Z,81.10
2022-11-25T08:46:16.229Z,86.10
2022-11-25T08:48:46.507Z,82.57
2022-11-25T08:51:16.627Z,74.55
2022-11-25T08:53:51.294Z,73.13
2022-11-25T08:56:25.519Z,79.47
2022-11-25T08:58:55.109Z,75.10
2022-11-25T09:01:23.916Z,77.72
2022-11-25T09:03:55.605Z,87.28
2022-11-25T09:08:52.415Z,77.88
2022-11-25T09:11:20.589Z,71.75
2022-11-25T09:13:49.239Z,74.38
2022-11-25T09:16:17.542Z,69.72
2022-11-25T09:18:47.347Z,69.35
2022-11-25T09:21:19.876Z,69.00
2022-11-25T09:23:51.574Z,70.25
2022-11-25T09:26:23.932Z,66.32
2022-11-25T09:28:52.551Z,63.05
2022-11-25T09:31:20.827Z,68.13
2022-11-25T09:33:49.456Z,66.55
2022-11-25T09:36:20.511Z,68.00
2022-11-25T09:41:52.078Z,56.67
2022-11-25T09:44:45.830Z,57.53
2022-11-25T09:47:18.769Z,58.63
2022-11-25T09:49:59.289Z,53.92
2022-11-25T09:52:36.859Z,53.80
2022-11-25T09:55:07.508Z,55.53
2022-11-25T09:57:59.447Z,51.85
2022-11-25T10:00:41.040Z,48.95
2022-11-25T10:03:16.857Z,45.13
2022-11-25T10:05:52.863Z,46.97
2022-11-25T10:08:25.434Z,50.40
2022-11-25T10:10:57.599Z,50.22
2022-11-25T10:13:30.484Z,51.38
2022-11-25T10:16:01.115Z,50.92
2022-11-25T10:18:33.473Z,46.47
2022-11-25T10:21:01.890Z,49.88
2022-11-25T10:23:33.837Z,44.03
2022-11-25T10:26:04.795Z,54.58
2022-11-25T10:28:34.396Z,56.17
2022-11-25T10:31:06.359Z,53.53
2022-11-25T10:33:38.026Z,61.28
2022-11-25T10:36:09.253Z,79.20
2022-11-25T10:38:42.691Z,55.28
2022-11-25T10:41:14.487Z,47.47
2022-11-25T10:46:17.946Z,69.30
2022-11-25T10:48:54.282Z,55.13
2022-11-25T10:51:34.199Z,52.00
2022-11-25T10:54:18.118Z,59.90
2022-11-25T10:56:51.211Z,57.85
2022-11-25T11:01:55.842Z,54.20
2022-11-25T11:04:24.095Z,53.35
2022-11-25T11:06:52.563Z,56.63
2022-11-25T11:09:36.516Z,57.83
2022-11-25T11:12:17.208Z,56.13
2022-11-25T11:14:45.413Z,45.83
2022-11-25T11:17:38.271Z,47.47
2022-11-25T11:20:17.956Z,54.03
2022-11-25T11:22:49.719Z,54.17
2022-11-25T11:25:31.713Z,52.83
2022-11-25T11:28:00.740Z,48.40
2022-11-25T11:30:30.305Z,50.13
2022-11-25T11:33:02.946Z,58.30
2022-11-25T11:35:45.915Z,57.20
2022-11-25T11:38:25.553Z,60.15
2022-11-25T11:40:59.105Z,56.72
2022-11-25T11:43:39.995Z,57.00
2022-11-25T11:46:20.863Z,42.53
2022-11-25T11:48:57.147Z,48.42
2022-11-25T11:51:31.250Z,48.78
2022-11-25T11:54:08.102Z,44.97
2022-11-25T11:56:41.630Z,41.45
2022-11-25T11:59:28.348Z,40.50
2022-11-25T12:02:05.329Z,46.53
2022-11-25T12:04:40.500Z,41.63
2022-11-25T12:07:11.581Z,44.47
2022-11-25T12:09:44.412Z,59.50
2022-11-25T12:12:17.315Z,48.17
2022-11-25T12:14:48.532Z,60.95
2022-11-25T12:17:19.926Z,75.20
2022-11-25T12:19:54.338Z,46.90
2022-11-25T12:22:25.097Z,57.67
2022-11-25T12:24:59.534Z,50.40
2022-11-25T12:27:33.227Z,46.45
2022-11-25T12:30:07.238Z,48.67
2022-11-25T12:32:49.176Z,46.85
2022-11-25T12:35:23.737Z,47.72
2022-11-25T12:37:57.948Z,54.65
2022-11-25T12:40:30.610Z,49.95
2022-11-25T12:43:08.708Z,54.90
2022-11-25T12:45:37.154Z,47.05
2022-11-25T12:48:05.657Z,46.70
2022-11-25T12:50:47.629Z,42.63
2022-11-25T12:53:18.729Z,47.85
2022-11-25T12:55:47.160Z,53.20
2022-11-25T12:58:40.966Z,53.67
2022-11-25T13:01:22.722Z,51.53
2022-11-25T13:06:51.669Z,52.40
2022-11-25T13:09:34.791Z,54.35
2022-11-25T13:12:21.302Z,58.65
2022-11-25T13:15:13.610Z,59.65
2022-11-25T13:17:44.387Z,54.20
2022-11-25T13:20:36.580Z,51.17
2022-11-25T13:23:10.322Z,55.33
2022-11-25T13:25:40.008Z,64.30
2022-11-25T13:28:29.661Z,50.38
2022-11-25T13:31:18.729Z,47.47
2022-11-25T13:34:03.713Z,40.05
2022-11-25T13:36:46.273Z,46.17
2022-11-25T13:39:16.736Z,46.10
2022-11-25T13:41:50.517Z,44.20
2022-11-25T13:44:24.192Z,46.40
2022-11-25T13:46:55.450Z,45.03
2022-11-25T13:49:28.281Z,53.70
2022-11-25T13:51:58.818Z,45.83
2022-11-25T13:54:33.207Z,48.25
2022-11-25T13:57:18.547Z,60.03
2022-11-25T13:59:53.522Z,48.53
2022-11-25T14:02:46.194Z,44.97
2022-11-25T14:05:49.062Z,49.88
2022-11-25T14:08:23.042Z,41.97
2022-11-25T14:10:56.503Z,46.53
2022-11-25T14:13:50.360Z,55.13
2022-11-25T14:16:32.358Z,55.45
2022-11-25T14:19:50.054Z,51.55
2022-11-25T14:22:20.136Z,54.60
2022-11-25T14:24:50.813Z,52.45
2022-11-25T14:27:22.222Z,54.13
2022-11-25T14:29:53.930Z,52.58
2022-11-25T14:32:25.855Z,54.60
2022-11-25T14:34:58.373Z,48.08
2022-11-25T14:37:29.649Z,48.50
2022-11-25T14:40:00.844Z,44.03
2022-11-25T14:42:34.440Z,48.03
2022-11-25T14:45:03.447Z,42.38
2022-11-25T14:47:37.612Z,45.55
2022-11-25T14:53:07.440Z,47.03
2022-11-25T14:55:36.927Z,49.63
2022-11-25T14:58:05.557Z,48.53
2022-11-25T15:00:33.853Z,52.90
2022-11-25T15:03:04.892Z,51.55
2022-11-25T15:05:36.593Z,52.63
2022-11-25T15:08:11.232Z,47.95
2022-11-25T15:10:44.290Z,49.78
2022-11-25T15:13:26.314Z,44.45
2022-11-25T15:18:25.465Z,54.97
2022-11-25T15:20:57.967Z,50.42
2022-11-25T15:23:32.045Z,63.20
2022-11-25T15:26:01.311Z,62.13
2022-11-25T15:28:35.525Z,82.25
2022-11-25T15:31:08.915Z,66.88
2022-11-25T15:33:38.454Z,62.35
2022-11-25T15:36:08.570Z,55.95
2022-11-25T15:38:42.426Z,57.50
2022-11-25T15:41:33.627Z,65.57
2022-11-25T15:46:31.741Z,66.57
2022-11-25T15:49:01.417Z,62.30
2022-11-25T15:51:43.522Z,56.63
2022-11-25T15:54:18.991Z,62.50
2022-11-25T15:56:50.386Z,53.88
2022-11-25T15:59:39.413Z,59.15
2022-11-25T16:02:32.182Z,82.45
2022-11-25T16:05:16.922Z,68.32
2022-11-25T16:07:59.402Z,64.30
2022-11-25T16:10:30.173Z,68.50
2022-11-25T16:13:21.763Z,64.70
2022-11-25T16:15:53.345Z,60.85
2022-11-25T16:18:39.795Z,65.30
2022-11-25T16:21:10.367Z,63.80
2022-11-25T16:23:41.643Z,62.55
2022-11-25T16:26:16.647Z,87.32
2022-11-25T16:28:54.362Z,156.10
2022-11-25T16:31:23.300Z,77.90
2022-11-25T16:33:51.697Z,76.68
2022-11-25T16:36:20.046Z,73.32
2022-11-25T16:38:52.980Z,69.28
2022-11-25T16:41:23.336Z,70.75
2022-11-25T16:43:51.454Z,69.10
2022-11-25T16:46:21.274Z,60.95
2022-11-25T16:48:49.542Z,199.85
2022-11-25T16:51:20.147Z,690.13
2022-11-25T16:53:50.168Z,503.95
2022-11-25T16:56:21.266Z,201.43
2022-11-25T16:58:49.511Z,81.53
2022-11-25T17:01:19.001Z,75.57
2022-11-25T17:03:47.096Z,72.85
2022-11-25T17:06:21.671Z,68.90
2022-11-25T17:08:52.036Z,61.05
2022-11-25T17:11:23.351Z,67.80
2022-11-25T17:13:53.508Z,62.63
2022-11-25T17:16:24.923Z,75.33
2022-11-25T17:18:54.669Z,74.30
2022-11-25T17:21:26.919Z,69.47
2022-11-25T17:24:02.668Z,73.15
2022-11-25T17:26:37.365Z,65.72
2022-11-25T17:29:07.863Z,63.53
2022-11-25T17:31:39.087Z,71.40
2022-11-25T17:34:07.242Z,72.07
2022-11-25T17:36:35.620Z,63.80
2022-11-25T17:39:05.113Z,60.63
2022-11-25T17:41:39.556Z,68.82
2022-11-25T17:44:14.691Z,63.45
2022-11-25T17:46:43.032Z,66.18
2022-11-25T17:49:14.721Z,63.22
2022-11-25T17:51:43.650Z,68.60
2022-11-25T17:54:13.765Z,74.47
2022-11-25T17:56:46.444Z,80.72
2022-11-25T17:59:19.514Z,85.50
2022-11-25T18:01:48.005Z,80.30
2022-11-25T18:04:17.718Z,79.30
2022-11-25T18:06:46.138Z,80.05
2022-11-25T18:09:15.831Z,68.47
2022-11-25T18:11:46.912Z,65.80
2022-11-25T18:14:15.967Z,62.90
2022-11-25T18:16:44.472Z,57.17
2022-11-25T18:19:13.502Z,63.33
2022-11-25T18:21:42.074Z,66.50
2022-11-25T18:24:10.151Z,69.30
2022-11-25T18:26:46.308Z,67.35
2022-11-25T18:29:15.861Z,69.20
2022-11-25T18:31:45.817Z,74.63
2022-11-25T18:34:15.559Z,69.50
2022-11-25T18:36:44.831Z,70.03
2022-11-25T18:39:13.857Z,65.88
2022-11-25T18:41:44.064Z,65.13
2022-11-25T18:44:21.718Z,63.40
2022-11-25T18:46:54.264Z,61.55
2022-11-25T18:49:23.897Z,64.68
2022-11-25T18:51:52.532Z,68.93
2022-11-25T18:54:20.710Z,62.67
2022-11-25T18:56:52.619Z,66.65
2022-11-25T18:59:30.471Z,62.47
2022-11-25T19:01:59.017Z,63.22
2022-11-25T19:04:27.327Z,59.67
2022-11-25T19:06:55.691Z,65.43
2022-11-25T19:09:23.765Z,64.78
2022-11-25T19:11:55.493Z,68.43
2022-11-25T19:16:55.277Z,78.05
2022-11-25T19:19:23.555Z,85.88
2022-11-25T19:21:52.108Z,93.38
2022-11-25T19:24:20.338Z,90.80
2022-11-25T19:26:54.689Z,94.13
2022-11-25T19:29:25.028Z,99.38
2022-11-25T19:31:54.175Z,104.80
2022-11-25T19:34:26.882Z,106.38
2022-11-25T19:36:55.197Z,121.82
2022-11-25T19:39:23.413Z,105.68
2022-11-25T19:41:51.874Z,94.75
2022-11-25T19:44:21.418Z,99.88
2022-11-25T19:47:14.433Z,92.78
2022-11-25T19:49:39.470Z,91.88
2022-11-25T19:52:15.454Z,85.20
2022-11-25T19:54:43.876Z,99.30
2022-11-25T19:57:17.697Z,100.85
2022-11-25T19:59:47.439Z,100.93
2022-11-25T20:02:18.192Z,93.80
2022-11-25T20:04:47.705Z,81.63
2022-11-25T20:07:18.636Z,77.05
2022-11-25T20:09:47.618Z,81.50
2022-11-25T20:12:21.055Z,85.43
2022-11-25T20:14:51.457Z,79.82
2022-11-25T20:17:25.854Z,78.18
2022-11-25T20:19:55.849Z,75.68
2022-11-25T20:22:27.942Z,71.22
2022-11-25T20:24:56.793Z,69.70
2022-11-25T20:27:27.459Z,77.53
2022-11-25T20:29:57.181Z,72.05
2022-11-25T20:32:29.023Z,73.40
2022-11-25T20:34:59.527Z,69.38
2022-11-25T20:37:29.738Z,57.15
2022-11-25T20:39:59.891Z,39.63
2022-11-25T20:42:28.612Z,30.37
2022-11-25T20:44:58.099Z,31.33
2022-11-25T20:47:27.472Z,30.00
2022-11-25T20:49:55.597Z,32.50
2022-11-25T20:52:28.353Z,50.22
2022-11-25T20:54:56.493Z,44.60
2022-11-25T20:57:25.002Z,34.20
2022-11-25T20:59:53.080Z,39.75
2022-11-25T21:02:22.843Z,36.28
2022-11-25T21:04:51.178Z,43.72
2022-11-25T21:07:19.607Z,45.90
2022-11-25T21:09:50.440Z,43.90
2022-11-25T21:12:19.672Z,39.65
2022-11-25T21:14:48.139Z,37.30
2022-11-25T21:17:16.491Z,43.42
2022-11-25T21:19:46.199Z,48.88
2022-11-25T21:22:15.062Z,46.85
2022-11-25T21:24:43.640Z,50.58
2022-11-25T21:27:14.929Z,49.58
2022-11-25T21:29:44.626Z,51.35
2022-11-25T21:32:21.629Z,52.00
2022-11-25T21:34:51.631Z,55.92
2022-11-25T21:37:29.815Z,62.05
2022-11-25T21:39:58.667Z,62.25
2022-11-25T21:42:27.520Z,61.03
2022-11-25T21:44:55.801Z,62.75
2022-11-25T21:47:26.647Z,66.25
2022-11-25T21:49:56.522Z,65.85
2022-11-25T21:52:24.967Z,73.13
2022-11-25T21:54:53.097Z,69.95
2022-11-25T21:57:24.397Z,67.57
2022-11-25T21:59:52.561Z,62.80
2022-11-25T22:02:22.617Z,87.85
2022-11-25T22:04:51.047Z,68.35
2022-11-25T22:07:20.809Z,60.67
2022-11-25T22:09:49.143Z,66.40
2022-11-25T22:12:26.443Z,60.13
2022-11-25T22:14:54.716Z,56.63
2022-11-25T22:17:23.577Z,58.92
2022-11-25T22:19:51.748Z,53.90
2022-11-25T22:22:21.645Z,59.60
2022-11-25T22:24:49.746Z,57.75
2022-11-25T22:27:22.226Z,64.20
2022-11-25T22:29:50.617Z,63.70
2022-11-25T22:32:19.473Z,60.85
2022-11-25T22:34:47.592Z,61.38
2022-11-25T22:37:18.186Z,69.18
2022-11-25T22:39:47.977Z,65.72
2022-11-25T22:42:18.773Z,67.80
2022-11-25T22:44:48.461Z,61.83
2022-11-25T22:47:20.717Z,66.03
2022-11-25T22:49:49.364Z,69.35
2022-11-25T22:52:20.644Z,68.65
2022-11-25T22:54:50.517Z,66.93
2022-11-25T22:57:19.397Z,67.80
2022-11-25T22:59:47.508Z,68.82
2022-11-25T23:02:19.803Z,73.43
2022-11-25T23:04:50.497Z,71.97
2022-11-25T23:07:20.113Z,75.18
2022-11-25T23:09:48.205Z,77.75
2022-11-25T23:12:18.646Z,77.57
2022-11-25T23:14:47.129Z,79.95
2022-11-25T23:17:19.078Z,77.72
2022-11-25T23:19:47.266Z,75.57
2022-11-25T23:22:15.647Z,76.45
2022-11-25T23:24:45.736Z,69.28
2022-11-25T23:27:14.818Z,73.20
2022-11-25T23:29:45.164Z,74.95
2022-11-25T23:32:18.519Z,72.35
2022-11-25T23:34:47.255Z,61.95
2022-11-25T23:37:15.970Z,69.85
2022-11-25T23:39:53.161Z,65.78
2022-11-25T23:42:21.945Z,61.50
2022-11-25T23:44:51.427Z,61.33
2022-11-25T23:47:22.150Z,67.20
2022-11-25T23:49:51.632Z,65.65
2022-11-25T23:52:23.082Z,64.97
2022-11-25T23:54:52.074Z,60.88
2022-11-25T23:57:21.848Z,66.47
2022-11-25T23:59:52.037Z,62.45
